sensor_id;sensor_type;location;lat;lon;timestamp;temperature;humidity
14727;DHT22;7454;51.256;8.176;2022-10-18T00:00:34;15.80;90.00
14727;DHT22;7454;51.256;8.176;2022-10-18T00:02:59;15.80;90.00
14727;DHT22;7454;51.256;8.176;2022-10-18T00:05:25;15.80;90.10
14727;DHT22;7454;51.256;8.176;2022-10-18T00:07:50;15.80;90.10
14727;DHT22;7454;51.256;8.176;2022-10-18T00:10:16;15.80;90.20
14727;DHT22;7454;51.256;8.176;2022-10-18T00:12:42;15.80;90.10
14727;DHT22;7454;51.256;8.176;2022-10-18T00:15:07;15.70;90.10
14727;DHT22;7454;51.256;8.176;2022-10-18T00:17:34;15.80;90.30
14727;DHT22;7454;51.256;8.176;2022-10-18T00:20:00;15.70;90.50
14727;DHT22;7454;51.256;8.176;2022-10-18T00:22:26;15.70;90.50
14727;DHT22;7454;51.256;8.176;2022-10-18T00:24:52;15.70;90.70
14727;DHT22;7454;51.256;8.176;2022-10-18T00:27:17;15.70;90.60
14727;DHT22;7454;51.256;8.176;2022-10-18T00:29:43;15.70;90.60
14727;DHT22;7454;51.256;8.176;2022-10-18T00:32:09;15.70;90.60
14727;DHT22;7454;51.256;8.176;2022-10-18T00:34:37;15.70;90.50
14727;DHT22;7454;51.256;8.176;2022-10-18T00:37:03;15.90;90.60
14727;DHT22;7454;51.256;8.176;2022-10-18T00:39:29;15.70;90.60
14727;DHT22;7454;51.256;8.176;2022-10-18T00:41:54;15.60;90.70
14727;DHT22;7454;51.256;8.176;2022-10-18T00:46:48;15.60;90.80
14727;DHT22;7454;51.256;8.176;2022-10-18T00:51:47;15.60;90.70
14727;DHT22;7454;51.256;8.176;2022-10-18T00:54:15;15.70;90.80
14727;DHT22;7454;51.256;8.176;2022-10-18T00:56:42;15.70;90.70
14727;DHT22;7454;51.256;8.176;2022-10-18T00:59:09;15.60;90.70
14727;DHT22;7454;51.256;8.176;2022-10-18T01:01:35;15.50;90.80
14727;DHT22;7454;51.256;8.176;2022-10-18T01:04:01;15.60;90.70
14727;DHT22;7454;51.256;8.176;2022-10-18T01:06:27;15.60;90.90
14727;DHT22;7454;51.256;8.176;2022-10-18T01:09:11;15.60;90.80
14727;DHT22;7454;51.256;8.176;2022-10-18T01:17:45;15.60;90.80
14727;DHT22;7454;51.256;8.176;2022-10-18T01:32:11;15.60;90.30
14727;DHT22;7454;51.256;8.176;2022-10-18T01:34:39;15.60;90.40
14727;DHT22;7454;51.256;8.176;2022-10-18T01:37:07;15.60;90.50
14727;DHT22;7454;51.256;8.176;2022-10-18T01:39:36;15.60;90.60
14727;DHT22;7454;51.256;8.176;2022-10-18T01:42:05;15.60;90.70
14727;DHT22;7454;51.256;8.176;2022-10-18T01:44:32;15.60;90.80
14727;DHT22;7454;51.256;8.176;2022-10-18T01:46:59;15.50;90.60
14727;DHT22;7454;51.256;8.176;2022-10-18T01:49:25;15.60;90.50
14727;DHT22;7454;51.256;8.176;2022-10-18T01:51:51;15.50;90.80
14727;DHT22;7454;51.256;8.176;2022-10-18T01:54:20;15.50;90.80
14727;DHT22;7454;51.256;8.176;2022-10-18T01:56:55;15.50;90.70
14727;DHT22;7454;51.256;8.176;2022-10-18T02:10:11;15.50;90.10
14727;DHT22;7454;51.256;8.176;2022-10-18T02:12:44;15.40;90.20
14727;DHT22;7454;51.256;8.176;2022-10-18T02:15:12;15.40;90.20
14727;DHT22;7454;51.256;8.176;2022-10-18T02:17:40;15.40;90.60
14727;DHT22;7454;51.256;8.176;2022-10-18T02:20:06;15.40;90.40
14727;DHT22;7454;51.256;8.176;2022-10-18T02:22:33;15.40;90.50
14727;DHT22;7454;51.256;8.176;2022-10-18T02:25:01;15.40;90.70
14727;DHT22;7454;51.256;8.176;2022-10-18T02:27:28;15.40;90.60
14727;DHT22;7454;51.256;8.176;2022-10-18T02:29:54;15.40;90.50
14727;DHT22;7454;51.256;8.176;2022-10-18T02:32:21;15.30;90.60
14727;DHT22;7454;51.256;8.176;2022-10-18T02:37:35;15.30;90.60
14727;DHT22;7454;51.256;8.176;2022-10-18T02:40:03;15.40;90.30
14727;DHT22;7454;51.256;8.176;2022-10-18T02:42:34;15.30;90.20
14727;DHT22;7454;51.256;8.176;2022-10-18T02:45:03;15.30;90.10
14727;DHT22;7454;51.256;8.176;2022-10-18T02:47:30;15.10;90.10
14727;DHT22;7454;51.256;8.176;2022-10-18T02:49:56;15.30;89.20
14727;DHT22;7454;51.256;8.176;2022-10-18T02:52:21;15.30;89.40
14727;DHT22;7454;51.256;8.176;2022-10-18T02:54:47;15.40;89.90
14727;DHT22;7454;51.256;8.176;2022-10-18T02:57:13;15.30;90.10
14727;DHT22;7454;51.256;8.176;2022-10-18T02:59:38;15.30;90.00
14727;DHT22;7454;51.256;8.176;2022-10-18T03:02:04;15.30;90.20
14727;DHT22;7454;51.256;8.176;2022-10-18T03:04:29;15.30;90.20
14727;DHT22;7454;51.256;8.176;2022-10-18T03:06:55;15.30;90.10
14727;DHT22;7454;51.256;8.176;2022-10-18T03:09:20;15.30;89.70
14727;DHT22;7454;51.256;8.176;2022-10-18T03:11:46;15.30;89.10
14727;DHT22;7454;51.256;8.176;2022-10-18T03:14:12;15.30;89.30
14727;DHT22;7454;51.256;8.176;2022-10-18T03:16:37;15.30;89.20
14727;DHT22;7454;51.256;8.176;2022-10-18T03:19:03;15.30;88.50
14727;DHT22;7454;51.256;8.176;2022-10-18T03:21:29;15.20;89.00
14727;DHT22;7454;51.256;8.176;2022-10-18T03:23:54;15.20;90.00
14727;DHT22;7454;51.256;8.176;2022-10-18T03:26:20;15.20;89.70
14727;DHT22;7454;51.256;8.176;2022-10-18T03:28:46;15.30;90.00
14727;DHT22;7454;51.256;8.176;2022-10-18T03:31:12;15.30;89.10
14727;DHT22;7454;51.256;8.176;2022-10-18T03:33:37;15.30;88.60
14727;DHT22;7454;51.256;8.176;2022-10-18T03:36:03;15.20;88.90
14727;DHT22;7454;51.256;8.176;2022-10-18T03:38:29;15.20;88.90
14727;DHT22;7454;51.256;8.176;2022-10-18T03:40:55;15.20;89.60
14727;DHT22;7454;51.256;8.176;2022-10-18T03:43:20;15.20;89.70
14727;DHT22;7454;51.256;8.176;2022-10-18T03:45:46;15.20;88.80
14727;DHT22;7454;51.256;8.176;2022-10-18T03:48:12;15.00;89.60
14727;DHT22;7454;51.256;8.176;2022-10-18T03:50:38;15.20;89.60
14727;DHT22;7454;51.256;8.176;2022-10-18T03:53:03;15.20;89.60
14727;DHT22;7454;51.256;8.176;2022-10-18T03:55:29;15.20;89.40
14727;DHT22;7454;51.256;8.176;2022-10-18T03:57:55;15.20;89.50
14727;DHT22;7454;51.256;8.176;2022-10-18T04:00:20;15.20;89.70
14727;DHT22;7454;51.256;8.176;2022-10-18T04:02:47;15.20;89.80
14727;DHT22;7454;51.256;8.176;2022-10-18T04:05:12;15.20;90.00
14727;DHT22;7454;51.256;8.176;2022-10-18T04:07:38;15.20;90.00
14727;DHT22;7454;51.256;8.176;2022-10-18T04:10:04;15.30;90.10
14727;DHT22;7454;51.256;8.176;2022-10-18T04:12:30;15.20;89.80
14727;DHT22;7454;51.256;8.176;2022-10-18T04:14:55;15.30;90.00
14727;DHT22;7454;51.256;8.176;2022-10-18T04:17:21;15.20;90.10
14727;DHT22;7454;51.256;8.176;2022-10-18T04:19:47;15.10;90.20
14727;DHT22;7454;51.256;8.176;2022-10-18T04:22:13;15.20;90.10
14727;DHT22;7454;51.256;8.176;2022-10-18T04:24:39;15.10;90.10
14727;DHT22;7454;51.256;8.176;2022-10-18T04:27:05;15.20;90.00
14727;DHT22;7454;51.256;8.176;2022-10-18T04:29:31;15.20;89.90
14727;DHT22;7454;51.256;8.176;2022-10-18T04:31:57;15.20;90.20
14727;DHT22;7454;51.256;8.176;2022-10-18T04:34:23;15.20;90.10
14727;DHT22;7454;51.256;8.176;2022-10-18T04:36:49;15.10;90.10
14727;DHT22;7454;51.256;8.176;2022-10-18T04:39:15;15.20;90.10
14727;DHT22;7454;51.256;8.176;2022-10-18T04:41:41;15.10;89.80
14727;DHT22;7454;51.256;8.176;2022-10-18T04:44:07;15.10;90.00
14727;DHT22;7454;51.256;8.176;2022-10-18T04:46:36;15.10;90.10
14727;DHT22;7454;51.256;8.176;2022-10-18T04:49:02;15.10;90.10
14727;DHT22;7454;51.256;8.176;2022-10-18T04:51:27;15.10;90.20
14727;DHT22;7454;51.256;8.176;2022-10-18T04:53:54;15.10;90.10
14727;DHT22;7454;51.256;8.176;2022-10-18T04:56:19;15.20;90.20
14727;DHT22;7454;51.256;8.176;2022-10-18T04:58:45;15.20;90.20
14727;DHT22;7454;51.256;8.176;2022-10-18T05:01:11;15.10;90.40
14727;DHT22;7454;51.256;8.176;2022-10-18T05:03:37;15.10;90.40
14727;DHT22;7454;51.256;8.176;2022-10-18T05:06:02;15.20;90.30
14727;DHT22;7454;51.256;8.176;2022-10-18T05:08:30;15.10;90.00
14727;DHT22;7454;51.256;8.176;2022-10-18T05:10:56;15.00;90.40
14727;DHT22;7454;51.256;8.176;2022-10-18T05:13:22;15.00;90.00
14727;DHT22;7454;51.256;8.176;2022-10-18T05:15:47;15.00;90.10
14727;DHT22;7454;51.256;8.176;2022-10-18T05:18:13;15.10;90.00
14727;DHT22;7454;51.256;8.176;2022-10-18T05:20:39;14.90;90.20
14727;DHT22;7454;51.256;8.176;2022-10-18T05:23:04;15.00;90.30
14727;DHT22;7454;51.256;8.176;2022-10-18T05:25:30;15.10;90.30
14727;DHT22;7454;51.256;8.176;2022-10-18T05:27:56;15.00;90.20
14727;DHT22;7454;51.256;8.176;2022-10-18T05:30:21;15.00;90.10
14727;DHT22;7454;51.256;8.176;2022-10-18T05:32:47;15.00;90.00
14727;DHT22;7454;51.256;8.176;2022-10-18T05:35:12;15.00;90.10
14727;DHT22;7454;51.256;8.176;2022-10-18T05:37:38;15.00;90.00
14727;DHT22;7454;51.256;8.176;2022-10-18T05:40:04;14.90;89.60
14727;DHT22;7454;51.256;8.176;2022-10-18T05:42:30;15.00;89.50
14727;DHT22;7454;51.256;8.176;2022-10-18T05:44:55;15.00;89.20
14727;DHT22;7454;51.256;8.176;2022-10-18T05:47:21;14.80;89.20
14727;DHT22;7454;51.256;8.176;2022-10-18T05:49:46;15.00;89.20
14727;DHT22;7454;51.256;8.176;2022-10-18T05:52:12;15.00;89.60
14727;DHT22;7454;51.256;8.176;2022-10-18T05:54:38;14.90;89.60
14727;DHT22;7454;51.256;8.176;2022-10-18T05:57:03;15.00;89.10
14727;DHT22;7454;51.256;8.176;2022-10-18T05:59:29;15.00;89.00
14727;DHT22;7454;51.256;8.176;2022-10-18T06:01:55;14.90;89.10
14727;DHT22;7454;51.256;8.176;2022-10-18T06:04:20;14.90;89.50
14727;DHT22;7454;51.256;8.176;2022-10-18T06:06:46;14.90;89.10
14727;DHT22;7454;51.256;8.176;2022-10-18T06:09:11;15.00;89.50
14727;DHT22;7454;51.256;8.176;2022-10-18T06:11:37;14.90;90.00
14727;DHT22;7454;51.256;8.176;2022-10-18T06:14:03;14.90;89.90
14727;DHT22;7454;51.256;8.176;2022-10-18T06:16:29;15.00;89.70
14727;DHT22;7454;51.256;8.176;2022-10-18T06:18:55;14.90;90.00
14727;DHT22;7454;51.256;8.176;2022-10-18T06:21:22;15.00;90.00
14727;DHT22;7454;51.256;8.176;2022-10-18T06:23:52;14.80;90.10
14727;DHT22;7454;51.256;8.176;2022-10-18T06:26:19;14.80;90.00
14727;DHT22;7454;51.256;8.176;2022-10-18T06:28:45;14.80;90.00
14727;DHT22;7454;51.256;8.176;2022-10-18T06:31:11;14.90;90.10
14727;DHT22;7454;51.256;8.176;2022-10-18T06:33:37;14.90;89.90
14727;DHT22;7454;51.256;8.176;2022-10-18T06:36:04;14.90;90.00
14727;DHT22;7454;51.256;8.176;2022-10-18T06:38:31;14.90;89.60
14727;DHT22;7454;51.256;8.176;2022-10-18T06:40:58;14.80;89.70
14727;DHT22;7454;51.256;8.176;2022-10-18T06:43:24;14.80;89.80
14727;DHT22;7454;51.256;8.176;2022-10-18T06:45:50;14.80;89.80
14727;DHT22;7454;51.256;8.176;2022-10-18T06:48:16;14.90;90.00
14727;DHT22;7454;51.256;8.176;2022-10-18T06:50:50;14.90;90.00
14727;DHT22;7454;51.256;8.176;2022-10-18T06:53:19;14.90;90.10
14727;DHT22;7454;51.256;8.176;2022-10-18T06:55:44;14.90;90.00
14727;DHT22;7454;51.256;8.176;2022-10-18T06:58:11;14.90;89.90
14727;DHT22;7454;51.256;8.176;2022-10-18T07:00:36;14.90;90.20
14727;DHT22;7454;51.256;8.176;2022-10-18T07:03:03;14.90;90.00
14727;DHT22;7454;51.256;8.176;2022-10-18T07:05:30;14.80;90.10
14727;DHT22;7454;51.256;8.176;2022-10-18T07:07:55;14.90;90.10
14727;DHT22;7454;51.256;8.176;2022-10-18T07:10:22;15.00;90.00
14727;DHT22;7454;51.256;8.176;2022-10-18T07:12:49;15.10;89.80
14727;DHT22;7454;51.256;8.176;2022-10-18T07:15:14;15.00;89.20
14727;DHT22;7454;51.256;8.176;2022-10-18T07:17:42;15.00;88.70
14727;DHT22;7454;51.256;8.176;2022-10-18T07:20:10;15.00;88.80
14727;DHT22;7454;51.256;8.176;2022-10-18T07:22:36;15.00;89.10
14727;DHT22;7454;51.256;8.176;2022-10-18T07:25:03;15.00;89.30
14727;DHT22;7454;51.256;8.176;2022-10-18T07:27:29;15.00;89.40
14727;DHT22;7454;51.256;8.176;2022-10-18T07:29:55;15.10;89.80
14727;DHT22;7454;51.256;8.176;2022-10-18T07:32:21;15.10;89.30
14727;DHT22;7454;51.256;8.176;2022-10-18T07:34:46;15.00;89.10
14727;DHT22;7454;51.256;8.176;2022-10-18T07:37:12;15.00;89.10
14727;DHT22;7454;51.256;8.176;2022-10-18T07:39:37;15.10;89.30
14727;DHT22;7454;51.256;8.176;2022-10-18T07:42:03;15.00;89.70
14727;DHT22;7454;51.256;8.176;2022-10-18T07:44:29;15.00;89.50
14727;DHT22;7454;51.256;8.176;2022-10-18T07:46:54;15.00;89.40
14727;DHT22;7454;51.256;8.176;2022-10-18T07:49:20;15.00;89.90
14727;DHT22;7454;51.256;8.176;2022-10-18T07:51:46;15.00;89.60
14727;DHT22;7454;51.256;8.176;2022-10-18T07:54:11;15.00;90.00
14727;DHT22;7454;51.256;8.176;2022-10-18T07:56:37;15.10;90.00
14727;DHT22;7454;51.256;8.176;2022-10-18T07:59:02;15.10;89.60
14727;DHT22;7454;51.256;8.176;2022-10-18T08:01:28;15.10;89.40
14727;DHT22;7454;51.256;8.176;2022-10-18T08:03:54;15.10;89.00
14727;DHT22;7454;51.256;8.176;2022-10-18T08:06:20;15.10;89.30
14727;DHT22;7454;51.256;8.176;2022-10-18T08:08:47;15.30;89.80
14727;DHT22;7454;51.256;8.176;2022-10-18T08:13:39;15.10;89.70
14727;DHT22;7454;51.256;8.176;2022-10-18T08:16:06;15.20;89.60
14727;DHT22;7454;51.256;8.176;2022-10-18T08:18:33;15.20;88.80
14727;DHT22;7454;51.256;8.176;2022-10-18T08:21:00;15.20;89.00
14727;DHT22;7454;51.256;8.176;2022-10-18T08:23:27;15.30;88.10
14727;DHT22;7454;51.256;8.176;2022-10-18T08:25:52;15.40;88.40
14727;DHT22;7454;51.256;8.176;2022-10-18T08:28:18;15.40;88.70
14727;DHT22;7454;51.256;8.176;2022-10-18T08:30:44;15.50;88.20
14727;DHT22;7454;51.256;8.176;2022-10-18T08:33:10;15.50;87.60
14727;DHT22;7454;51.256;8.176;2022-10-18T08:35:35;15.60;88.10
14727;DHT22;7454;51.256;8.176;2022-10-18T08:38:01;15.50;87.40
14727;DHT22;7454;51.256;8.176;2022-10-18T08:40:26;15.60;86.70
14727;DHT22;7454;51.256;8.176;2022-10-18T08:43:37;15.60;86.40
14727;DHT22;7454;51.256;8.176;2022-10-18T08:45:53;15.60;87.20
14727;DHT22;7454;51.256;8.176;2022-10-18T08:48:20;15.50;86.80
14727;DHT22;7454;51.256;8.176;2022-10-18T08:50:52;15.60;86.70
14727;DHT22;7454;51.256;8.176;2022-10-18T08:53:23;15.60;86.20
14727;DHT22;7454;51.256;8.176;2022-10-18T08:55:56;15.90;86.20
14727;DHT22;7454;51.256;8.176;2022-10-18T08:58:28;15.70;87.60
14727;DHT22;7454;51.256;8.176;2022-10-18T09:01:19;15.80;87.00
14727;DHT22;7454;51.256;8.176;2022-10-18T09:11:40;16.00;85.80
14727;DHT22;7454;51.256;8.176;2022-10-18T09:14:19;16.00;85.80
14727;DHT22;7454;51.256;8.176;2022-10-18T09:25:32;15.90;85.20
14727;DHT22;7454;51.256;8.176;2022-10-18T09:28:32;15.90;85.80
14727;DHT22;7454;51.256;8.176;2022-10-18T09:31:15;16.00;85.80
14727;DHT22;7454;51.256;8.176;2022-10-18T09:33:47;16.00;85.90
14727;DHT22;7454;51.256;8.176;2022-10-18T09:36:19;15.90;85.70
14727;DHT22;7454;51.256;8.176;2022-10-18T09:38:48;16.00;86.20
14727;DHT22;7454;51.256;8.176;2022-10-18T09:41:22;16.00;86.00
14727;DHT22;7454;51.256;8.176;2022-10-18T09:46:14;16.00;86.40
14727;DHT22;7454;51.256;8.176;2022-10-18T09:48:48;16.00;86.50
14727;DHT22;7454;51.256;8.176;2022-10-18T09:51:19;16.00;85.80
14727;DHT22;7454;51.256;8.176;2022-10-18T09:56:27;16.00;85.60
14727;DHT22;7454;51.256;8.176;2022-10-18T09:58:54;16.10;85.80
14727;DHT22;7454;51.256;8.176;2022-10-18T10:01:21;16.20;86.40
14727;DHT22;7454;51.256;8.176;2022-10-18T10:03:49;16.10;85.30
14727;DHT22;7454;51.256;8.176;2022-10-18T10:06:35;16.10;85.50
14727;DHT22;7454;51.256;8.176;2022-10-18T10:09:07;16.20;86.30
14727;DHT22;7454;51.256;8.176;2022-10-18T10:11:43;16.20;86.30
14727;DHT22;7454;51.256;8.176;2022-10-18T10:14:14;16.20;85.60
14727;DHT22;7454;51.256;8.176;2022-10-18T10:16:49;16.20;85.70
14727;DHT22;7454;51.256;8.176;2022-10-18T10:19:36;16.20;86.40
14727;DHT22;7454;51.256;8.176;2022-10-18T10:22:05;16.20;85.80
14727;DHT22;7454;51.256;8.176;2022-10-18T10:24:45;16.20;85.50
14727;DHT22;7454;51.256;8.176;2022-10-18T10:32:48;16.20;85.70
14727;DHT22;7454;51.256;8.176;2022-10-18T10:37:57;16.20;86.40
14727;DHT22;7454;51.256;8.176;2022-10-18T10:40:27;16.20;86.90
14727;DHT22;7454;51.256;8.176;2022-10-18T10:43:14;16.30;87.00
14727;DHT22;7454;51.256;8.176;2022-10-18T10:45:52;16.30;85.70
14727;DHT22;7454;51.256;8.176;2022-10-18T10:48:20;16.20;85.50
14727;DHT22;7454;51.256;8.176;2022-10-18T10:51:03;16.30;85.50
14727;DHT22;7454;51.256;8.176;2022-10-18T10:56:25;16.30;86.80
14727;DHT22;7454;51.256;8.176;2022-10-18T10:58:53;16.30;85.10
14727;DHT22;7454;51.256;8.176;2022-10-18T11:01:21;16.30;85.60
14727;DHT22;7454;51.256;8.176;2022-10-18T11:03:48;16.30;85.00
14727;DHT22;7454;51.256;8.176;2022-10-18T11:06:32;16.30;84.30
14727;DHT22;7454;51.256;8.176;2022-10-18T11:09:04;16.40;84.80
14727;DHT22;7454;51.256;8.176;2022-10-18T11:11:36;16.50;84.70
14727;DHT22;7454;51.256;8.176;2022-10-18T11:16:35;16.50;84.70
14727;DHT22;7454;51.256;8.176;2022-10-18T11:19:24;16.50;85.20
14727;DHT22;7454;51.256;8.176;2022-10-18T11:22:04;16.50;84.80
14727;DHT22;7454;51.256;8.176;2022-10-18T11:24:31;16.50;85.40
14727;DHT22;7454;51.256;8.176;2022-10-18T11:30:05;16.50;85.60
14727;DHT22;7454;51.256;8.176;2022-10-18T11:32:30;16.50;86.20
14727;DHT22;7454;51.256;8.176;2022-10-18T11:50:58;16.80;84.50
14727;DHT22;7454;51.256;8.176;2022-10-18T11:56:17;16.80;84.00
14727;DHT22;7454;51.256;8.176;2022-10-18T12:01:35;16.90;82.70
14727;DHT22;7454;51.256;8.176;2022-10-18T12:04:12;16.90;83.10
14727;DHT22;7454;51.256;8.176;2022-10-18T12:06:42;17.00;83.30
14727;DHT22;7454;51.256;8.176;2022-10-18T12:12:00;17.00;83.30
14727;DHT22;7454;51.256;8.176;2022-10-18T12:14:38;17.00;83.40
14727;DHT22;7454;51.256;8.176;2022-10-18T12:17:11;17.00;83.10
14727;DHT22;7454;51.256;8.176;2022-10-18T12:19:43;17.20;83.10
14727;DHT22;7454;51.256;8.176;2022-10-18T12:22:15;17.10;83.10
14727;DHT22;7454;51.256;8.176;2022-10-18T12:24:44;17.20;82.90
14727;DHT22;7454;51.256;8.176;2022-10-18T12:27:10;17.20;82.80
14727;DHT22;7454;51.256;8.176;2022-10-18T12:29:43;17.20;82.80
14727;DHT22;7454;51.256;8.176;2022-10-18T12:32:12;17.20;83.00
14727;DHT22;7454;51.256;8.176;2022-10-18T12:34:42;17.20;82.50
14727;DHT22;7454;51.256;8.176;2022-10-18T12:39:57;17.20;82.30
14727;DHT22;7454;51.256;8.176;2022-10-18T12:42:26;17.20;82.90
14727;DHT22;7454;51.256;8.176;2022-10-18T12:47:43;17.10;82.80
14727;DHT22;7454;51.256;8.176;2022-10-18T12:50:24;17.00;82.80
14727;DHT22;7454;51.256;8.176;2022-10-18T12:53:03;17.00;82.50
14727;DHT22;7454;51.256;8.176;2022-10-18T12:55:32;16.90;82.70
14727;DHT22;7454;51.256;8.176;2022-10-18T12:58:02;17.00;82.60
14727;DHT22;7454;51.256;8.176;2022-10-18T13:11:23;16.90;82.50
14727;DHT22;7454;51.256;8.176;2022-10-18T13:16:44;16.80;82.60
14727;DHT22;7454;51.256;8.176;2022-10-18T13:21:41;16.80;82.80
14727;DHT22;7454;51.256;8.176;2022-10-18T13:24:13;16.70;82.70
14727;DHT22;7454;51.256;8.176;2022-10-18T13:26:49;16.60;82.60
14727;DHT22;7454;51.256;8.176;2022-10-18T13:29:36;16.60;82.70
14727;DHT22;7454;51.256;8.176;2022-10-18T13:32:34;16.50;82.60
14727;DHT22;7454;51.256;8.176;2022-10-18T13:38:04;16.50;82.80
14727;DHT22;7454;51.256;8.176;2022-10-18T13:40:58;16.40;82.90
14727;DHT22;7454;51.256;8.176;2022-10-18T13:46:23;16.50;83.20
14727;DHT22;7454;51.256;8.176;2022-10-18T13:48:58;16.50;82.90
14727;DHT22;7454;51.256;8.176;2022-10-18T13:59:41;16.60;82.50
14727;DHT22;7454;51.256;8.176;2022-10-18T14:08:25;16.60;82.30
14727;DHT22;7454;51.256;8.176;2022-10-18T14:11:04;16.50;82.40
14727;DHT22;7454;51.256;8.176;2022-10-18T14:13:56;16.50;82.20
14727;DHT22;7454;51.256;8.176;2022-10-18T14:16:26;16.40;82.00
14727;DHT22;7454;51.256;8.176;2022-10-18T14:18:55;16.30;82.10
14727;DHT22;7454;51.256;8.176;2022-10-18T14:21:29;16.20;82.10
14727;DHT22;7454;51.256;8.176;2022-10-18T14:23:59;16.20;82.10
14727;DHT22;7454;51.256;8.176;2022-10-18T14:26:25;16.30;82.50
14727;DHT22;7454;51.256;8.176;2022-10-18T14:29:06;16.10;82.50
14727;DHT22;7454;51.256;8.176;2022-10-18T14:31:40;16.20;82.60
14727;DHT22;7454;51.256;8.176;2022-10-18T14:34:09;16.20;82.40
14727;DHT22;7454;51.256;8.176;2022-10-18T14:36:39;16.20;82.30
14727;DHT22;7454;51.256;8.176;2022-10-18T14:39:05;16.20;82.20
14727;DHT22;7454;51.256;8.176;2022-10-18T14:41:46;16.20;82.10
14727;DHT22;7454;51.256;8.176;2022-10-18T14:46:43;16.20;82.10
14727;DHT22;7454;51.256;8.176;2022-10-18T14:49:14;16.20;82.10
14727;DHT22;7454;51.256;8.176;2022-10-18T14:51:42;16.20;82.10
14727;DHT22;7454;51.256;8.176;2022-10-18T14:54:12;16.20;82.00
14727;DHT22;7454;51.256;8.176;2022-10-18T14:56:40;16.10;82.20
14727;DHT22;7454;51.256;8.176;2022-10-18T14:59:17;16.10;82.20
14727;DHT22;7454;51.256;8.176;2022-10-18T15:01:53;16.20;82.10
14727;DHT22;7454;51.256;8.176;2022-10-18T15:04:20;16.20;82.00
14727;DHT22;7454;51.256;8.176;2022-10-18T15:06:47;16.20;82.00
14727;DHT22;7454;51.256;8.176;2022-10-18T15:09:13;16.10;81.60
14727;DHT22;7454;51.256;8.176;2022-10-18T15:11:40;16.20;81.70
14727;DHT22;7454;51.256;8.176;2022-10-18T15:14:11;16.00;81.80
14727;DHT22;7454;51.256;8.176;2022-10-18T15:16:39;16.00;81.80
14727;DHT22;7454;51.256;8.176;2022-10-18T15:21:52;15.90;81.40
14727;DHT22;7454;51.256;8.176;2022-10-18T15:24:25;15.90;81.60
14727;DHT22;7454;51.256;8.176;2022-10-18T15:26:54;15.90;81.60
14727;DHT22;7454;51.256;8.176;2022-10-18T15:29:23;15.80;81.80
14727;DHT22;7454;51.256;8.176;2022-10-18T15:31:49;15.80;82.00
14727;DHT22;7454;51.256;8.176;2022-10-18T15:34:24;15.70;81.70
14727;DHT22;7454;51.256;8.176;2022-10-18T15:36:51;15.70;81.70
14727;DHT22;7454;51.256;8.176;2022-10-18T15:39:25;15.60;81.80
14727;DHT22;7454;51.256;8.176;2022-10-18T15:41:59;15.60;81.40
14727;DHT22;7454;51.256;8.176;2022-10-18T15:44:31;15.60;81.80
14727;DHT22;7454;51.256;8.176;2022-10-18T15:47:12;15.60;81.80
14727;DHT22;7454;51.256;8.176;2022-10-18T15:52:28;15.50;81.30
14727;DHT22;7454;51.256;8.176;2022-10-18T15:58:04;15.40;81.40
14727;DHT22;7454;51.256;8.176;2022-10-18T16:00:30;15.40;81.60
14727;DHT22;7454;51.256;8.176;2022-10-18T16:02:56;15.30;82.00
14727;DHT22;7454;51.256;8.176;2022-10-18T16:05:21;15.30;82.10
14727;DHT22;7454;51.256;8.176;2022-10-18T16:07:53;15.30;82.20
14727;DHT22;7454;51.256;8.176;2022-10-18T16:10:18;15.20;82.20
14727;DHT22;7454;51.256;8.176;2022-10-18T16:12:45;15.20;82.10
14727;DHT22;7454;51.256;8.176;2022-10-18T16:15:11;15.20;81.70
14727;DHT22;7454;51.256;8.176;2022-10-18T16:17:37;15.10;81.70
14727;DHT22;7454;51.256;8.176;2022-10-18T16:20:02;15.00;81.50
14727;DHT22;7454;51.256;8.176;2022-10-18T16:22:28;15.10;81.70
14727;DHT22;7454;51.256;8.176;2022-10-18T16:24:54;15.00;81.80
14727;DHT22;7454;51.256;8.176;2022-10-18T16:27:20;14.90;81.80
14727;DHT22;7454;51.256;8.176;2022-10-18T16:29:46;14.90;82.00
14727;DHT22;7454;51.256;8.176;2022-10-18T16:32:12;14.80;82.10
14727;DHT22;7454;51.256;8.176;2022-10-18T16:34:37;14.80;82.10
14727;DHT22;7454;51.256;8.176;2022-10-18T16:37:03;14.70;82.00
14727;DHT22;7454;51.256;8.176;2022-10-18T16:39:28;14.60;81.90
14727;DHT22;7454;51.256;8.176;2022-10-18T16:41:59;14.50;81.90
14727;DHT22;7454;51.256;8.176;2022-10-18T16:44:24;14.30;82.00
14727;DHT22;7454;51.256;8.176;2022-10-18T16:46:50;14.30;82.00
14727;DHT22;7454;51.256;8.176;2022-10-18T16:49:20;14.20;82.10
14727;DHT22;7454;51.256;8.176;2022-10-18T16:51:48;14.10;82.10
14727;DHT22;7454;51.256;8.176;2022-10-18T16:54:17;14.00;82.10
14727;DHT22;7454;51.256;8.176;2022-10-18T16:56:42;13.90;82.10
14727;DHT22;7454;51.256;8.176;2022-10-18T16:59:09;13.90;82.20
14727;DHT22;7454;51.256;8.176;2022-10-18T17:02:01;13.80;82.20
14727;DHT22;7454;51.256;8.176;2022-10-18T17:04:30;13.80;82.20
14727;DHT22;7454;51.256;8.176;2022-10-18T17:06:56;13.70;82.10
14727;DHT22;7454;51.256;8.176;2022-10-18T17:09:22;13.70;82.20
14727;DHT22;7454;51.256;8.176;2022-10-18T17:11:48;13.70;82.20
14727;DHT22;7454;51.256;8.176;2022-10-18T17:14:14;13.60;82.00
14727;DHT22;7454;51.256;8.176;2022-10-18T17:16:39;13.60;82.20
14727;DHT22;7454;51.256;8.176;2022-10-18T17:19:07;13.60;82.10
14727;DHT22;7454;51.256;8.176;2022-10-18T17:21:34;13.50;82.10
14727;DHT22;7454;51.256;8.176;2022-10-18T17:24:00;13.50;82.10
14727;DHT22;7454;51.256;8.176;2022-10-18T17:26:27;13.40;82.10
14727;DHT22;7454;51.256;8.176;2022-10-18T17:28:54;13.30;82.10
14727;DHT22;7454;51.256;8.176;2022-10-18T17:31:21;13.30;82.00
14727;DHT22;7454;51.256;8.176;2022-10-18T17:33:47;13.30;82.00
14727;DHT22;7454;51.256;8.176;2022-10-18T17:36:14;13.40;81.90
14727;DHT22;7454;51.256;8.176;2022-10-18T17:38:40;13.20;81.80
14727;DHT22;7454;51.256;8.176;2022-10-18T17:41:06;13.20;82.00
14727;DHT22;7454;51.256;8.176;2022-10-18T17:43:38;13.10;81.90
14727;DHT22;7454;51.256;8.176;2022-10-18T17:46:05;13.00;81.90
14727;DHT22;7454;51.256;8.176;2022-10-18T17:48:31;13.00;82.00
14727;DHT22;7454;51.256;8.176;2022-10-18T17:50:57;12.90;82.20
14727;DHT22;7454;51.256;8.176;2022-10-18T17:53:23;12.90;82.00
14727;DHT22;7454;51.256;8.176;2022-10-18T17:55:56;12.90;82.20
14727;DHT22;7454;51.256;8.176;2022-10-18T17:58:25;12.90;82.10
14727;DHT22;7454;51.256;8.176;2022-10-18T18:00:51;12.90;82.20
14727;DHT22;7454;51.256;8.176;2022-10-18T18:03:17;12.90;82.20
14727;DHT22;7454;51.256;8.176;2022-10-18T18:05:42;12.90;82.00
14727;DHT22;7454;51.256;8.176;2022-10-18T18:08:08;12.80;82.10
14727;DHT22;7454;51.256;8.176;2022-10-18T18:10:34;12.90;82.20
14727;DHT22;7454;51.256;8.176;2022-10-18T18:13:00;12.70;82.10
14727;DHT22;7454;51.256;8.176;2022-10-18T18:15:26;12.80;82.40
14727;DHT22;7454;51.256;8.176;2022-10-18T18:17:52;12.70;82.20
14727;DHT22;7454;51.256;8.176;2022-10-18T18:20:17;12.70;82.10
14727;DHT22;7454;51.256;8.176;2022-10-18T18:22:45;12.70;82.30
14727;DHT22;7454;51.256;8.176;2022-10-18T18:25:11;12.70;82.20
14727;DHT22;7454;51.256;8.176;2022-10-18T18:27:36;12.70;82.20